createdAt,value
2017-09-18T00:00:19.703Z,88.32
2017-09-18T00:02:47.925Z,88.62
2017-09-18T00:05:16.434Z,88.75
2017-09-18T00:07:44.064Z,88.52
2017-09-18T00:10:11.752Z,88.01
2017-09-18T00:12:40.444Z,87.56
2017-09-18T00:15:08.092Z,87.00
2017-09-18T00:17:36.622Z,86.13
2017-09-18T00:20:04.365Z,85.60
2017-09-18T00:22:33.091Z,85.30
2017-09-18T00:25:00.853Z,85.46
2017-09-18T00:27:28.492Z,85.27
2017-09-18T00:29:56.239Z,85.30
2017-09-18T00:32:23.912Z,85.15
2017-09-18T00:34:52.120Z,85.25
2017-09-18T00:37:19.977Z,84.46
2017-09-18T00:39:47.693Z,84.42
2017-09-18T00:42:16.371Z,84.03
2017-09-18T00:44:44.373Z,84.24
2017-09-18T00:47:12.324Z,84.41
2017-09-18T00:49:39.950Z,84.90
2017-09-18T00:52:07.594Z,85.10
2017-09-18T00:54:35.259Z,85.41
2017-09-18T00:57:04.223Z,85.40
2017-09-18T00:59:31.902Z,84.86
2017-09-18T01:01:59.608Z,84.91
2017-09-18T01:04:27.547Z,85.33
2017-09-18T01:06:55.973Z,85.46
2017-09-18T01:09:24.456Z,84.88
2017-09-18T01:11:52.264Z,84.89
2017-09-18T01:14:19.883Z,84.85
2017-09-18T01:16:48.499Z,84.69
2017-09-18T01:19:16.672Z,84.42
2017-09-18T01:21:44.851Z,84.35
2017-09-18T01:24:12.496Z,84.47
2017-09-18T01:26:40.196Z,84.41
2017-09-18T01:29:07.794Z,84.93
2017-09-18T01:31:35.453Z,84.92
2017-09-18T01:34:03.236Z,85.23
2017-09-18T01:36:30.880Z,85.26
2017-09-18T01:38:58.557Z,85.33
2017-09-18T01:41:26.386Z,85.90
2017-09-18T01:43:54.094Z,87.01
2017-09-18T01:46:21.688Z,87.46
2017-09-18T01:48:49.329Z,87.45
2017-09-18T01:51:17.355Z,87.31
2017-09-18T01:53:45.040Z,87.91
2017-09-18T01:56:12.648Z,88.89
2017-09-18T01:58:40.353Z,89.39
2017-09-18T02:01:08.020Z,89.41
2017-09-18T02:03:35.636Z,89.60
2017-09-18T02:06:03.336Z,89.63
2017-09-18T02:08:31.171Z,89.50
2017-09-18T02:10:59.456Z,89.25
2017-09-18T02:13:27.058Z,88.99
2017-09-18T02:15:54.845Z,88.48
2017-09-18T02:18:22.780Z,87.55
2017-09-18T02:20:51.892Z,87.69
2017-09-18T02:23:20.431Z,87.91
2017-09-18T02:25:48.983Z,88.36
2017-09-18T02:28:16.619Z,88.76
2017-09-18T02:30:45.100Z,88.82
2017-09-18T02:33:13.528Z,88.52
2017-09-18T02:35:41.231Z,88.41
2017-09-18T02:38:08.888Z,88.59
2017-09-18T02:40:38.176Z,88.82
2017-09-18T02:43:06.410Z,89.17
2017-09-18T02:45:34.019Z,89.55
2017-09-18T02:48:02.209Z,89.38
2017-09-18T02:50:29.880Z,89.25
2017-09-18T02:52:57.651Z,89.14
2017-09-18T02:55:25.268Z,89.13
2017-09-18T02:57:53.038Z,89.02
2017-09-18T03:00:20.687Z,88.55
2017-09-18T03:02:48.876Z,88.37
2017-09-18T03:05:16.516Z,88.38
2017-09-18T03:07:44.926Z,88.23
2017-09-18T03:10:13.060Z,88.20
2017-09-18T03:12:40.732Z,87.95
2017-09-18T03:15:09.523Z,87.60
2017-09-18T03:17:37.163Z,87.42
2017-09-18T03:20:04.831Z,87.19
2017-09-18T03:22:32.491Z,87.33
2017-09-18T03:25:00.916Z,87.40
2017-09-18T03:27:28.524Z,87.29
2017-09-18T03:29:57.157Z,87.28
2017-09-18T03:32:24.801Z,87.47
2017-09-18T03:34:53.203Z,87.61
2017-09-18T03:37:20.841Z,87.90
2017-09-18T03:39:49.397Z,88.06
2017-09-18T03:42:16.995Z,87.86
2017-09-18T03:44:44.655Z,87.51
2017-09-18T03:47:12.308Z,87.37
2017-09-18T03:49:39.976Z,87.26
2017-09-18T03:52:07.691Z,86.78
2017-09-18T03:54:35.387Z,86.78
2017-09-18T03:57:02.989Z,86.85
2017-09-18T03:59:31.576Z,86.68
2017-09-18T04:02:00.155Z,86.07
2017-09-18T04:04:27.795Z,86.21
2017-09-18T04:06:55.833Z,86.28
2017-09-18T04:09:23.492Z,86.04
2017-09-18T04:11:51.203Z,86.37
2017-09-18T04:14:19.330Z,86.83
2017-09-18T04:16:47.042Z,86.91
2017-09-18T04:19:15.812Z,86.98
2017-09-18T04:21:43.681Z,86.79
2017-09-18T04:24:12.091Z,86.39
2017-09-18T04:26:39.747Z,86.35
2017-09-18T04:29:08.298Z,86.56
2017-09-18T04:31:35.929Z,86.50
2017-09-18T04:34:03.565Z,86.61
2017-09-18T04:36:31.196Z,87.19
2017-09-18T04:38:58.803Z,87.55
2017-09-18T04:41:26.527Z,87.86
2017-09-18T04:43:54.140Z,87.80
2017-09-18T04:46:21.810Z,87.66
2017-09-18T04:48:49.443Z,87.43
2017-09-18T04:51:17.667Z,87.22
2017-09-18T04:53:45.431Z,87.17
2017-09-18T04:56:13.147Z,87.46
2017-09-18T04:58:40.767Z,87.54
2017-09-18T05:01:08.423Z,87.43
2017-09-18T05:03:36.903Z,87.35
2017-09-18T05:06:05.295Z,86.99
2017-09-18T05:08:32.916Z,86.21
2017-09-18T05:11:00.601Z,85.99
2017-09-18T05:13:28.596Z,86.31
2017-09-18T05:15:57.132Z,86.62
2017-09-18T05:18:25.585Z,87.03
2017-09-18T05:20:53.304Z,87.36
2017-09-18T05:23:21.732Z,87.60
2017-09-18T05:25:49.370Z,87.95
2017-09-18T05:28:17.068Z,88.22
2017-09-18T05:30:45.327Z,88.17
2017-09-18T05:33:12.928Z,88.02
2017-09-18T05:35:40.559Z,87.55
2017-09-18T05:38:08.242Z,87.34
2017-09-18T05:40:36.549Z,87.27
2017-09-18T05:43:04.617Z,87.25
2017-09-18T05:45:33.127Z,86.48
2017-09-18T05:48:01.692Z,86.67
2017-09-18T05:50:29.300Z,87.28
2017-09-18T05:52:56.996Z,87.63
2017-09-18T05:55:24.642Z,87.83
2017-09-18T05:57:53.648Z,88.06
2017-09-18T06:00:21.258Z,88.05
2017-09-18T06:02:48.902Z,87.99
2017-09-18T06:05:16.512Z,88.22
2017-09-18T06:07:44.174Z,88.28
2017-09-18T06:10:11.798Z,88.83
2017-09-18T06:12:39.436Z,89.01
2017-09-18T06:15:07.850Z,88.98
2017-09-18T06:17:35.496Z,88.65
2017-09-18T06:20:03.562Z,88.18
2017-09-18T06:22:31.240Z,88.25
2017-09-18T06:24:59.067Z,88.17
2017-09-18T06:27:27.260Z,88.02
2017-09-18T06:29:54.876Z,87.67
2017-09-18T06:32:22.580Z,87.70
2017-09-18T06:34:50.228Z,87.60
2017-09-18T06:37:17.880Z,87.92
2017-09-18T06:39:46.345Z,88.05
2017-09-18T06:42:14.003Z,87.90
2017-09-18T06:44:41.615Z,87.89
2017-09-18T06:47:09.995Z,87.63
2017-09-18T06:49:37.609Z,87.51
2017-09-18T06:52:05.255Z,87.41
2017-09-18T06:54:32.899Z,86.75
2017-09-18T06:57:00.531Z,86.81
2017-09-18T06:59:28.159Z,87.26
2017-09-18T07:01:56.703Z,87.59
2017-09-18T07:04:24.299Z,87.06
2017-09-18T07:06:51.935Z,87.18
2017-09-18T07:09:19.531Z,87.21
2017-09-18T07:11:47.159Z,86.75
2017-09-18T07:14:14.758Z,85.89
2017-09-18T07:16:42.380Z,84.30
2017-09-18T07:19:09.974Z,84.60
2017-09-18T07:21:37.637Z,84.98
2017-09-18T07:24:05.236Z,85.34
2017-09-18T07:26:32.858Z,85.06
2017-09-18T07:29:00.587Z,84.77
2017-09-18T07:31:28.184Z,85.21
2017-09-18T07:33:55.818Z,85.47
2017-09-18T07:36:23.411Z,85.17
2017-09-18T07:38:51.034Z,84.88
2017-09-18T07:41:18.651Z,84.82
2017-09-18T07:43:46.302Z,84.47
2017-09-18T07:46:13.890Z,84.73
2017-09-18T07:48:41.522Z,85.12
2017-09-18T07:51:09.106Z,85.27
2017-09-18T07:53:36.750Z,84.28
2017-09-18T07:56:04.346Z,83.72
2017-09-18T07:58:32.046Z,84.12
2017-09-18T08:00:59.643Z,83.94
2017-09-18T08:03:27.281Z,84.09
2017-09-18T08:05:54.881Z,84.05
2017-09-18T08:08:22.493Z,84.18
2017-09-18T08:10:50.078Z,83.67
2017-09-18T08:13:17.715Z,84.21
2017-09-18T08:15:46.960Z,84.26
2017-09-18T08:18:14.581Z,84.04
2017-09-18T08:20:42.184Z,84.23
2017-09-18T08:23:09.846Z,84.04
2017-09-18T08:25:37.464Z,83.44
2017-09-18T08:28:05.093Z,83.87
2017-09-18T08:30:32.679Z,84.34
2017-09-18T08:33:00.298Z,83.41
2017-09-18T08:35:27.899Z,83.43
2017-09-18T08:37:55.526Z,83.40
2017-09-18T08:40:23.135Z,83.17
2017-09-18T08:42:50.770Z,83.10
2017-09-18T08:45:18.382Z,83.33
2017-09-18T08:47:46.028Z,83.96
2017-09-18T08:50:13.646Z,85.69
2017-09-18T08:52:41.336Z,86.74
2017-09-18T08:55:08.938Z,87.85
2017-09-18T08:57:36.693Z,87.55
2017-09-18T09:00:04.291Z,87.15
2017-09-18T09:02:31.928Z,87.30
2017-09-18T09:04:59.534Z,87.03
2017-09-18T09:07:27.176Z,87.61
2017-09-18T09:09:54.804Z,87.03
2017-09-18T09:12:22.522Z,85.56
2017-09-18T09:14:50.142Z,86.35
2017-09-18T09:17:17.771Z,87.97
2017-09-18T09:19:45.406Z,86.75
2017-09-18T09:22:13.059Z,87.14
2017-09-18T09:24:40.722Z,86.67
2017-09-18T09:27:08.426Z,85.76
2017-09-18T09:29:36.008Z,85.54
2017-09-18T09:32:03.662Z,84.78
2017-09-18T09:34:31.340Z,85.13
2017-09-18T09:36:58.966Z,85.22
2017-09-18T09:39:26.564Z,85.72
2017-09-18T09:41:54.230Z,86.17
2017-09-18T09:44:21.880Z,85.80
2017-09-18T09:46:49.534Z,86.45
2017-09-18T09:49:17.140Z,86.63
2017-09-18T09:51:44.730Z,87.16
2017-09-18T09:54:12.376Z,87.09
2017-09-18T09:56:39.992Z,87.57
2017-09-18T09:59:07.632Z,89.27
2017-09-18T10:01:35.231Z,90.70
2017-09-18T10:04:02.873Z,91.80
2017-09-18T10:06:30.485Z,92.30
2017-09-18T10:08:58.139Z,92.94
2017-09-18T10:11:25.786Z,92.64
2017-09-18T10:13:53.463Z,91.80
2017-09-18T10:16:21.127Z,91.33
2017-09-18T10:18:48.767Z,91.70
2017-09-18T10:21:16.367Z,92.63
2017-09-18T10:23:44.040Z,93.07
2017-09-18T10:26:11.659Z,92.57
2017-09-18T10:28:39.346Z,92.77
2017-09-18T10:31:06.952Z,92.97
2017-09-18T10:33:34.626Z,92.50
2017-09-18T10:36:02.219Z,91.90
2017-09-18T10:38:29.855Z,90.45
2017-09-18T10:40:57.463Z,90.40
2017-09-18T10:43:25.126Z,90.55
2017-09-18T10:45:52.750Z,91.13
2017-09-18T10:48:20.447Z,90.45
2017-09-18T10:50:48.051Z,90.42
2017-09-18T10:53:15.671Z,89.34
2017-09-18T10:55:43.315Z,88.06
2017-09-18T10:58:10.910Z,88.15
2017-09-18T11:00:38.804Z,88.44
2017-09-18T11:03:06.390Z,90.05
2017-09-18T11:05:34.035Z,90.69
2017-09-18T11:08:01.642Z,91.29
2017-09-18T11:10:29.290Z,91.49
2017-09-18T11:12:56.975Z,92.14
2017-09-18T11:15:24.632Z,91.75
2017-09-18T11:17:52.288Z,92.31
2017-09-18T11:20:19.913Z,92.19
2017-09-18T11:22:47.568Z,92.60
2017-09-18T11:25:15.198Z,92.79
2017-09-18T11:27:43.004Z,92.03
2017-09-18T11:30:10.626Z,92.03
2017-09-18T11:32:38.251Z,92.23
2017-09-18T11:35:05.902Z,91.66
2017-09-18T11:37:33.499Z,92.27
2017-09-18T11:40:01.126Z,89.56
2017-09-18T11:42:28.744Z,89.26
2017-09-18T11:44:56.394Z,87.84
2017-09-18T11:47:24.022Z,86.28
2017-09-18T11:49:51.646Z,86.62
2017-09-18T11:52:19.253Z,86.66
2017-09-18T11:54:46.901Z,86.94
2017-09-18T11:57:14.498Z,86.79
2017-09-18T11:59:42.094Z,86.44
2017-09-18T12:02:09.747Z,87.25
2017-09-18T12:04:37.367Z,86.66
2017-09-18T12:07:05.031Z,84.59
2017-09-18T12:09:32.626Z,80.49
2017-09-18T12:12:00.248Z,80.28
2017-09-18T12:14:27.862Z,79.03
2017-09-18T12:16:55.499Z,75.47
2017-09-18T12:19:23.098Z,75.06
2017-09-18T12:21:50.739Z,75.69
2017-09-18T12:24:18.334Z,73.59
2017-09-18T12:26:45.978Z,71.85
2017-09-18T12:29:13.571Z,71.10
2017-09-18T12:31:41.201Z,71.12
2017-09-18T12:34:08.810Z,70.32
2017-09-18T12:36:36.438Z,69.35
2017-09-18T12:39:04.070Z,70.23
2017-09-18T12:41:31.706Z,70.54
2017-09-18T12:43:59.301Z,70.26
2017-09-18T12:46:26.933Z,72.07
2017-09-18T12:48:54.589Z,74.02
2017-09-18T12:51:22.219Z,73.30
2017-09-18T12:53:49.823Z,71.09
2017-09-18T12:56:17.434Z,69.55
2017-09-18T12:58:45.079Z,67.75
2017-09-18T13:01:12.768Z,65.81
2017-09-18T13:03:40.396Z,68.28
2017-09-18T13:06:08.055Z,67.84
2017-09-18T13:08:35.681Z,66.90
2017-09-18T13:11:03.339Z,68.63
2017-09-18T13:13:30.923Z,67.64
2017-09-18T13:15:58.526Z,67.73
2017-09-18T13:18:26.141Z,65.64
2017-09-18T13:20:53.743Z,64.93
2017-09-18T13:23:21.358Z,62.61
2017-09-18T13:25:48.966Z,64.16
2017-09-18T13:28:16.603Z,64.31
2017-09-18T13:30:44.194Z,66.39
2017-09-18T13:33:11.830Z,65.81
2017-09-18T13:35:39.431Z,63.85
2017-09-18T13:38:07.046Z,63.08
2017-09-18T13:40:34.770Z,61.70
2017-09-18T13:43:02.415Z,63.95
2017-09-18T13:45:30.042Z,65.37
2017-09-18T13:47:57.700Z,66.99
2017-09-18T13:50:25.314Z,69.49
2017-09-18T13:52:53.022Z,71.14
2017-09-18T13:55:20.643Z,71.15
2017-09-18T13:57:48.278Z,68.22
2017-09-18T14:00:15.880Z,67.63
2017-09-18T14:02:43.507Z,66.65
2017-09-18T14:05:11.127Z,66.86
2017-09-18T14:07:38.863Z,69.35
2017-09-18T14:10:06.476Z,70.28
2017-09-18T14:12:34.098Z,69.77
2017-09-18T14:15:01.753Z,71.28
2017-09-18T14:17:29.415Z,72.52
2017-09-18T14:19:57.019Z,71.31
2017-09-18T14:22:24.648Z,70.37
2017-09-18T14:24:52.296Z,70.34
2017-09-18T14:27:19.910Z,70.88
2017-09-18T14:29:47.555Z,70.46
2017-09-18T14:32:15.146Z,71.11
2017-09-18T14:34:42.786Z,70.89
2017-09-18T14:37:10.457Z,72.15
2017-09-18T14:39:38.106Z,73.33
2017-09-18T14:42:05.691Z,73.84
2017-09-18T14:44:33.347Z,74.01
2017-09-18T14:47:00.948Z,74.76
2017-09-18T14:49:28.627Z,75.16
2017-09-18T14:51:56.238Z,75.57
2017-09-18T14:54:23.955Z,75.66
2017-09-18T14:56:51.571Z,75.66
2017-09-18T14:59:19.218Z,75.70
2017-09-18T15:01:46.818Z,75.28
2017-09-18T15:04:14.447Z,75.04
2017-09-18T15:06:42.064Z,75.74
2017-09-18T15:09:09.726Z,75.86
2017-09-18T15:11:37.360Z,76.03
2017-09-18T15:14:04.998Z,75.99
2017-09-18T15:16:32.625Z,76.13
2017-09-18T15:19:00.259Z,76.30
2017-09-18T15:21:27.896Z,76.39
2017-09-18T15:23:55.492Z,76.86
2017-09-18T15:26:23.167Z,76.98
2017-09-18T15:28:50.941Z,77.16
2017-09-18T15:31:18.587Z,78.20
2017-09-18T15:33:46.206Z,78.60
2017-09-18T15:36:13.882Z,73.72
2017-09-18T15:38:41.609Z,74.63
2017-09-18T15:41:09.252Z,76.29
2017-09-18T15:43:36.852Z,77.91
2017-09-18T15:46:04.608Z,78.17
2017-09-18T15:48:32.259Z,79.42
2017-09-18T15:50:59.898Z,80.16
2017-09-18T15:53:27.498Z,80.07
2017-09-18T15:55:55.145Z,80.31
2017-09-18T15:58:22.754Z,81.06
2017-09-18T16:00:50.438Z,82.02
2017-09-18T16:03:18.237Z,82.15
2017-09-18T16:05:45.903Z,82.26
2017-09-18T16:08:13.542Z,82.86
2017-09-18T16:10:41.142Z,84.77
2017-09-18T16:13:08.786Z,85.21
2017-09-18T16:15:36.394Z,85.86
2017-09-18T16:18:04.054Z,86.26
2017-09-18T16:20:32.632Z,87.22
2017-09-18T16:23:01.954Z,87.48
2017-09-18T16:25:29.720Z,87.12
2017-09-18T16:27:57.627Z,87.12
2017-09-18T16:30:26.618Z,87.00
2017-09-18T16:32:54.455Z,87.29
2017-09-18T16:35:22.324Z,86.21
2017-09-18T16:37:50.468Z,86.34
2017-09-18T16:40:18.152Z,87.72
2017-09-18T16:42:46.525Z,89.35
2017-09-18T16:45:14.289Z,89.81
2017-09-18T16:47:42.477Z,90.28
2017-09-18T16:50:10.652Z,90.58
2017-09-18T16:52:39.176Z,90.14
2017-09-18T16:55:07.031Z,89.80
2017-09-18T16:57:34.829Z,89.78
2017-09-18T17:00:03.383Z,90.16
2017-09-18T17:02:31.071Z,90.99
2017-09-18T17:04:58.727Z,91.20
2017-09-18T17:07:27.229Z,90.31
2017-09-18T17:09:55.749Z,90.95
2017-09-18T17:12:23.564Z,91.52
2017-09-18T17:14:51.644Z,91.58
2017-09-18T17:17:19.369Z,88.66
2017-09-18T17:19:47.209Z,89.34
2017-09-18T17:22:15.175Z,89.86
2017-09-18T17:24:44.501Z,90.36
2017-09-18T17:27:13.051Z,91.47
2017-09-18T17:29:41.159Z,91.39
2017-09-18T17:32:09.476Z,91.21
2017-09-18T17:34:37.852Z,91.21
2017-09-18T17:37:05.476Z,90.89
2017-09-18T17:39:34.113Z,91.10
2017-09-18T17:42:02.545Z,91.48
2017-09-18T17:44:30.188Z,91.62
2017-09-18T17:46:58.814Z,92.18
2017-09-18T17:49:26.763Z,92.01
2017-09-18T17:51:54.800Z,92.08
2017-09-18T17:54:22.680Z,90.98
2017-09-18T17:56:50.299Z,90.92
2017-09-18T17:59:18.054Z,90.09
2017-09-18T18:01:45.711Z,89.59
2017-09-18T18:04:13.411Z,89.66
2017-09-18T18:06:41.799Z,89.24
2017-09-18T18:09:09.464Z,89.88
2017-09-18T18:11:37.821Z,90.08
2017-09-18T18:14:05.940Z,90.77
2017-09-18T18:16:33.595Z,91.28
2017-09-18T18:19:01.268Z,91.60
2017-09-18T18:21:28.961Z,89.69
2017-09-18T18:23:57.709Z,89.45
2017-09-18T18:26:25.467Z,89.00
2017-09-18T18:28:53.620Z,88.94
2017-09-18T18:31:21.265Z,88.58
2017-09-18T18:33:49.748Z,88.17
2017-09-18T18:36:17.395Z,87.70
2017-09-18T18:38:46.583Z,87.69
2017-09-18T18:41:14.280Z,87.87
2017-09-18T18:43:42.011Z,87.96
2017-09-18T18:46:09.897Z,88.30
2017-09-18T18:48:38.399Z,88.50
2017-09-18T18:51:06.540Z,88.73
2017-09-18T18:53:34.195Z,88.74
2017-09-18T18:56:01.865Z,89.13
2017-09-18T18:58:30.676Z,89.33
2017-09-18T19:00:58.366Z,89.34
2017-09-18T19:03:27.371Z,88.96
2017-09-18T19:05:55.909Z,89.56
2017-09-18T19:08:23.585Z,89.81
2017-09-18T19:10:52.233Z,88.79
2017-09-18T19:13:20.797Z,88.99
2017-09-18T19:15:48.549Z,88.84
2017-09-18T19:18:17.336Z,89.04
2017-09-18T19:20:45.315Z,88.44
2017-09-18T19:23:12.975Z,89.03
2017-09-18T19:25:41.241Z,89.49
2017-09-18T19:28:09.622Z,89.56
2017-09-18T19:30:38.624Z,89.64
2017-09-18T19:33:07.072Z,89.37
2017-09-18T19:35:34.907Z,89.38
2017-09-18T19:38:02.720Z,89.08
2017-09-18T19:40:30.449Z,89.03
2017-09-18T19:42:58.348Z,89.33
2017-09-18T19:45:29.038Z,89.19
2017-09-18T19:47:56.764Z,89.65
2017-09-18T19:50:24.449Z,90.40
2017-09-18T19:52:52.713Z,90.58
2017-09-18T19:55:20.361Z,90.63
2017-09-18T19:57:47.980Z,90.44
2017-09-18T20:00:15.685Z,90.11
2017-09-18T20:02:43.888Z,90.23
2017-09-18T20:05:11.617Z,90.12
2017-09-18T20:07:40.173Z,90.01
2017-09-18T20:10:07.840Z,89.85
2017-09-18T20:12:36.111Z,90.00
2017-09-18T20:15:03.772Z,90.17
2017-09-18T20:17:31.404Z,90.41
2017-09-18T20:19:59.183Z,90.35
2017-09-18T20:22:26.848Z,90.46
2017-09-18T20:24:54.600Z,90.34
2017-09-18T20:27:23.232Z,91.63
2017-09-18T20:29:51.606Z,90.69
2017-09-18T20:32:19.539Z,90.66
2017-09-18T20:34:48.043Z,90.80
2017-09-18T20:37:16.241Z,90.80
2017-09-18T20:39:43.906Z,90.81
2017-09-18T20:42:11.546Z,91.09
2017-09-18T20:44:39.229Z,91.23
2017-09-18T20:47:06.962Z,91.27
2017-09-18T20:49:34.665Z,91.17
2017-09-18T20:52:02.306Z,90.97
2017-09-18T20:54:29.978Z,91.13
2017-09-18T20:56:57.582Z,90.85
2017-09-18T20:59:25.249Z,91.16
2017-09-18T21:01:52.855Z,91.14
2017-09-18T21:04:20.689Z,91.09
2017-09-18T21:06:48.493Z,91.20
2017-09-18T21:09:16.158Z,91.07
2017-09-18T21:11:43.826Z,90.75
2017-09-18T21:14:11.723Z,90.91
2017-09-18T21:16:39.388Z,90.76
2017-09-18T21:19:07.211Z,90.77
2017-09-18T21:21:36.540Z,91.04
2017-09-18T21:24:04.305Z,90.80
2017-09-18T21:26:32.840Z,90.95
2017-09-18T21:29:00.516Z,90.75
2017-09-18T21:31:28.330Z,90.52
2017-09-18T21:33:55.963Z,90.48
2017-09-18T21:36:23.610Z,90.79
2017-09-18T21:38:51.241Z,90.84
2017-09-18T21:41:18.993Z,91.01
2017-09-18T21:43:46.580Z,90.99
2017-09-18T21:46:14.214Z,91.14
2017-09-18T21:48:41.839Z,91.46
2017-09-18T21:51:09.526Z,91.42
2017-09-18T21:53:37.188Z,91.31
2017-09-18T21:56:04.888Z,91.00
2017-09-18T21:58:32.492Z,91.11
2017-09-18T22:01:00.193Z,91.01
2017-09-18T22:03:27.838Z,91.04
2017-09-18T22:05:55.522Z,90.91
2017-09-18T22:08:23.142Z,91.00
2017-09-18T22:10:50.762Z,91.04
2017-09-18T22:13:18.375Z,91.26
2017-09-18T22:15:46.058Z,91.37
2017-09-18T22:18:13.651Z,91.19
2017-09-18T22:20:41.270Z,91.43
2017-09-18T22:23:08.885Z,91.82
2017-09-18T22:25:36.534Z,91.78
2017-09-18T22:28:04.135Z,91.65
2017-09-18T22:30:31.783Z,91.49
2017-09-18T22:32:59.390Z,91.42
2017-09-18T22:35:27.023Z,91.55
2017-09-18T22:37:54.640Z,91.38
2017-09-18T22:40:22.255Z,91.50
2017-09-18T22:42:49.862Z,91.46
2017-09-18T22:45:17.491Z,91.59
2017-09-18T22:47:45.102Z,91.54
2017-09-18T22:50:12.717Z,91.79
2017-09-18T22:52:40.339Z,92.00
2017-09-18T22:55:07.968Z,91.92
2017-09-18T22:57:35.586Z,92.03
2017-09-18T23:00:03.213Z,91.89
2017-09-18T23:02:30.810Z,92.01
2017-09-18T23:04:58.500Z,92.13
2017-09-18T23:07:26.095Z,92.23
2017-09-18T23:09:53.719Z,92.38
2017-09-18T23:12:21.352Z,93.10
2017-09-18T23:14:48.980Z,92.97
2017-09-18T23:17:16.576Z,93.05
2017-09-18T23:19:44.204Z,93.46
2017-09-18T23:22:11.802Z,93.35
2017-09-18T23:24:39.447Z,93.25
2017-09-18T23:27:07.068Z,93.08
2017-09-18T23:29:34.707Z,92.84
2017-09-18T23:32:02.314Z,92.85
2017-09-18T23:34:29.942Z,93.08
2017-09-18T23:36:57.544Z,93.44
2017-09-18T23:39:25.227Z,93.34
2017-09-18T23:41:52.830Z,93.51
2017-09-18T23:44:20.428Z,93.37
2017-09-18T23:46:48.059Z,93.44
2017-09-18T23:49:15.967Z,93.62
2017-09-18T23:51:43.591Z,93.74
2017-09-18T23:54:11.208Z,93.85
2017-09-18T23:56:38.868Z,93.91
2017-09-18T23:59:06.463Z,93.80
